Time;durP1;ratioP1;P1;durP2;ratioP2;P2;SDS_P1;SDS_P2;PMS_P1;PMS_P2;Temp;Humidity;BMP_temperature;BMP_pressure;BME280_temperature;BME280_humidity;BME280_pressure;Samples;Min_cycle;Max_cycle;Signal;HPM_P1;HPM_P2
2023/01/25 00:01:26;;;;;;;52.03;31.92;;;;;;;-0.40;91.21;103675.72;4993568;28;20057;-85
2023/01/25 00:03:52;;;;;;;52.00;31.23;;;;;;;-0.42;91.04;103672.16;4993097;28;20042;-86
2023/01/25 00:06:18;;;;;;;55.75;34.63;;;;;;;-0.44;91.81;103670.22;4992857;28;20025;-85
2023/01/25 00:08:49;;;;;;;53.97;32.13;;;;;;;-0.44;92.08;103662.56;4992956;28;20131;-85
2023/01/25 00:11:29;;;;;;;60.97;36.08;;;;;;;-0.52;91.56;103665.44;4992850;28;20031;-85
2023/01/25 00:14:11;;;;;;;57.72;33.80;;;;;;;-0.57;91.59;103666.78;4992236;28;20035;-85
2023/01/25 00:16:48;;;;;;;61.38;36.40;;;;;;;-0.54;91.54;103661.00;5012573;28;20422;-85
2023/01/25 00:19:14;;;;;;;55.40;32.67;;;;;;;-0.48;91.69;103666.56;5016462;28;20041;-85
2023/01/25 00:21:40;;;;;;;50.03;28.88;;;;;;;-0.41;92.00;103658.63;5016726;28;20022;-85
2023/01/25 00:24:10;;;;;;;45.72;26.60;;;;;;;-0.37;92.26;103655.50;5016485;28;20394;-85
2023/01/25 00:26:39;;;;;;;41.88;23.58;;;;;;;-0.30;92.61;103654.31;5016220;28;20026;-85
2023/01/25 00:29:19;;;;;;;37.70;21.00;;;;;;;-0.26;92.03;103653.78;5016328;28;20486;-86
2023/01/25 00:32:00;;;;;;;43.15;24.17;;;;;;;-0.24;91.86;103654.78;5016570;28;20038;-86
2023/01/25 00:34:46;;;;;;;52.85;31.08;;;;;;;-0.30;91.50;103650.88;5016309;28;20466;-85
2023/01/25 00:37:23;;;;;;;;;;;;;;;-0.31;91.98;103657.63;5017116;28;20022;-85
2023/01/25 00:40:01;;;;;;;56.83;32.60;;;;;;;-0.22;91.08;103657.44;5016175;28;19913;-86
2023/01/25 00:42:47;;;;;;;52.35;30.85;;;;;;;-0.30;91.91;103651.75;5016538;28;20045;-86
2023/01/25 00:45:20;;;;;;;59.90;34.80;;;;;;;-0.37;91.54;103646.97;5016468;28;20042;-86
2023/01/25 00:47:46;;;;;;;64.75;37.28;;;;;;;-0.44;91.48;103643.06;5017460;28;20053;-86
2023/01/25 00:50:11;;;;;;;64.70;37.25;;;;;;;-0.49;91.46;103642.72;5022344;28;20029;-85
2023/01/25 00:52:38;;;;;;;67.55;40.03;;;;;;;-0.62;91.73;103652.78;5016120;28;20092;-85
2023/01/25 00:55:03;;;;;;;66.45;38.22;;;;;;;-0.62;91.80;103655.31;5015402;28;20030;-85
2023/01/25 00:57:29;;;;;;;61.15;35.58;;;;;;;-0.64;91.89;103647.56;5016015;28;20390;-85
2023/01/25 00:59:54;;;;;;;60.40;34.28;;;;;;;-0.63;92.00;103646.78;5015744;28;20532;-85
2023/01/25 01:02:19;;;;;;;49.33;27.63;;;;;;;-0.58;92.24;103649.69;5015544;28;20034;-85
2023/01/25 01:04:45;;;;;;;51.50;29.13;;;;;;;-0.54;91.94;103640.59;5015009;28;20056;-85
2023/01/25 01:07:12;;;;;;;50.08;28.50;;;;;;;-0.51;91.90;103636.63;5015891;28;20057;-85
2023/01/25 01:09:37;;;;;;;47.60;26.45;;;;;;;-0.50;92.35;103632.38;5015410;28;20430;-85
2023/01/25 01:12:03;;;;;;;46.33;25.33;;;;;;;-0.44;92.17;103634.50;5015355;28;20028;-85
2023/01/25 01:14:28;;;;;;;54.22;30.75;;;;;;;-0.38;91.53;103633.31;5015217;28;20026;-85
2023/01/25 01:16:53;;;;;;;51.15;29.67;;;;;;;-0.41;92.00;103628.00;5015023;28;20030;-85
2023/01/25 01:19:19;;;;;;;47.88;26.80;;;;;;;-0.42;91.85;103636.44;5015908;28;20486;-85
2023/01/25 01:21:44;;;;;;;45.97;25.40;;;;;;;-0.39;91.82;103635.75;5015403;28;20053;-84
2023/01/25 01:24:10;;;;;;;49.38;27.13;;;;;;;-0.37;91.92;103634.22;5014521;28;20025;-85
2023/01/25 01:26:35;;;;;;;49.15;27.67;;;;;;;-0.42;91.90;103635.50;5015517;28;20026;-85
2023/01/25 01:29:01;;;;;;;60.38;34.55;;;;;;;-0.42;91.73;103636.44;5014936;28;20022;-85
2023/01/25 01:31:26;;;;;;;55.85;30.65;;;;;;;-0.44;91.86;103637.97;5014560;28;20026;-85
2023/01/25 01:33:54;;;;;;;49.60;27.17;;;;;;;-0.41;92.47;103635.66;5015170;28;20025;-85
2023/01/25 01:36:21;;;;;;;55.42;30.17;;;;;;;-0.43;91.92;103631.19;5014998;28;20022;-84
2023/01/25 01:38:47;;;;;;;56.40;31.17;;;;;;;-0.46;92.02;103629.31;5015193;28;20037;-84
2023/01/25 01:41:14;;;;;;;57.97;32.97;;;;;;;-0.50;92.13;103628.19;5015735;28;20018;-85
2023/01/25 01:43:39;;;;;;;53.10;30.70;;;;;;;-0.50;92.42;103627.28;5014063;28;20030;-85
2023/01/25 01:46:26;;;;;;;62.45;35.03;;;;;;;-0.55;91.86;103632.03;5014736;28;20040;-85
2023/01/25 01:48:56;;;;;;;59.53;32.90;;;;;;;-0.53;92.19;103638.16;5015204;28;20153;-85
2023/01/25 01:51:40;;;;;;;54.83;30.50;;;;;;;-0.52;92.42;103634.84;5014644;28;20367;-86
2023/01/25 01:54:41;;;;;;;54.58;29.80;;;;;;;-0.49;92.36;103629.97;5014947;28;20473;-85
2023/01/25 01:57:20;;;;;;;51.67;27.95;;;;;;;-0.47;92.67;103635.19;5014205;28;20038;-85
2023/01/25 01:59:56;;;;;;;47.17;25.95;;;;;;;-0.45;92.43;103636.19;5014692;28;20095;-85
2023/01/25 02:02:24;;;;;;;48.03;26.02;;;;;;;-0.41;92.66;103634.75;5014662;28;20030;-84
2023/01/25 02:04:52;;;;;;;52.05;29.70;;;;;;;-0.42;92.22;103632.97;5014343;28;20034;-85
2023/01/25 02:07:34;;;;;;;54.03;29.55;;;;;;;-0.45;92.59;103640.41;5015128;28;20033;-85
2023/01/25 02:10:01;;;;;;;64.20;34.70;;;;;;;-0.52;91.82;103633.97;5014708;28;20030;-85
2023/01/25 02:12:27;;;;;;;55.38;30.38;;;;;;;-0.53;92.36;103638.16;5014131;28;20033;-85
2023/01/25 02:14:53;;;;;;;52.63;29.20;;;;;;;-0.53;92.25;103630.50;5013754;28;20038;-85
2023/01/25 02:17:31;;;;;;;48.40;26.08;;;;;;;-0.51;92.54;103628.09;5014915;28;20344;-85
2023/01/25 02:20:21;;;;;;;44.35;22.98;;;;;;;-0.45;92.48;103628.53;5013501;28;20123;-85
2023/01/25 02:22:56;;;;;;;42.50;21.67;;;;;;;-0.42;92.32;103626.22;5014016;28;20069;-85
2023/01/25 02:25:21;;;;;;;39.72;20.42;;;;;;;-0.40;92.36;103622.13;5014137;28;20042;-85
2023/01/25 02:27:52;;;;;;;39.58;20.42;;;;;;;-0.36;92.40;103615.59;5013213;28;20046;-86
2023/01/25 02:30:18;;;;;;;41.10;20.65;;;;;;;-0.38;92.68;103606.91;5014305;28;20033;-84
2023/01/25 02:32:43;;;;;;;61.63;34.22;;;;;;;-0.43;91.97;103613.31;5013410;28;20160;-85
2023/01/25 02:35:18;;;;;;;55.15;29.63;;;;;;;-0.43;92.44;103613.31;5013914;28;20022;-85
2023/01/25 02:37:43;;;;;;;49.35;25.83;;;;;;;-0.42;92.59;103613.47;5014148;28;20030;-85
2023/01/25 02:40:09;;;;;;;47.40;24.75;;;;;;;-0.41;92.63;103602.47;5012689;28;20028;-85
2023/01/25 02:42:35;;;;;;;44.78;23.65;;;;;;;-0.38;92.75;103599.25;5013484;28;20482;-84
2023/01/25 02:45:01;;;;;;;48.67;25.45;;;;;;;-0.39;92.46;103605.13;5013708;28;20018;-85
2023/01/25 02:47:26;;;;;;;44.10;23.67;;;;;;;-0.37;92.75;103601.91;5013534;28;20586;-85
2023/01/25 02:49:52;;;;;;;40.72;21.42;;;;;;;-0.33;92.79;103600.47;5013754;28;20040;-85
2023/01/25 02:52:17;;;;;;;40.03;20.02;;;;;;;-0.29;92.57;103594.84;5013537;28;20080;-85
2023/01/25 02:54:42;;;;;;;39.33;20.02;;;;;;;-0.25;92.62;103596.84;5012751;28;20108;-85
2023/01/25 02:57:08;;;;;;;43.05;21.83;;;;;;;-0.23;92.98;103599.50;5013758;28;20367;-85
2023/01/25 02:59:33;;;;;;;40.03;20.20;;;;;;;-0.22;92.74;103596.19;5014373;28;20101;-85
2023/01/25 03:01:59;;;;;;;40.70;20.60;;;;;;;-0.24;92.55;103596.06;5012892;28;20026;-85
2023/01/25 03:04:24;;;;;;;38.53;19.27;;;;;;;-0.25;92.69;103594.28;5013671;28;20030;-85
2023/01/25 03:06:50;;;;;;;37.80;18.83;;;;;;;-0.25;92.51;103590.84;5013361;28;20058;-86
2023/01/25 03:09:15;;;;;;;39.00;19.83;;;;;;;-0.25;92.21;103598.50;5013188;28;20425;-85
2023/01/25 03:11:41;;;;;;;45.47;23.25;;;;;;;-0.27;92.32;103597.47;5013568;28;20045;-85
2023/01/25 03:14:06;;;;;;;56.28;30.17;;;;;;;-0.27;92.13;103587.28;5013290;28;20026;-85
2023/01/25 03:16:32;;;;;;;52.90;26.88;;;;;;;-0.33;92.15;103590.25;4995405;28;20054;-85
2023/01/25 03:18:58;;;;;;;46.95;23.30;;;;;;;-0.36;92.16;103584.97;4993707;28;20053;-85
2023/01/25 03:21:23;;;;;;;41.97;21.25;;;;;;;-0.38;92.52;103581.41;4994006;28;20018;-85
2023/01/25 03:24:00;;;;;;;39.63;19.42;;;;;;;-0.37;92.25;103578.06;4992969;28;20030;-85
2023/01/25 03:26:27;;;;;;;37.72;18.50;;;;;;;-0.38;92.27;103583.94;4993738;28;20014;-85
2023/01/25 03:28:52;;;;;;;37.03;18.23;;;;;;;-0.36;92.71;103575.63;4993057;28;20054;-84
2023/01/25 03:31:18;;;;;;;36.80;17.45;;;;;;;-0.34;92.37;103566.41;4993639;28;20058;-85
2023/01/25 03:33:44;;;;;;;36.13;17.08;;;;;;;-0.29;92.82;103560.78;4994285;28;20022;-85
2023/01/25 03:36:09;;;;;;;48.65;24.30;;;;;;;-0.30;92.08;103559.00;4992977;28;20022;-85
2023/01/25 03:38:35;;;;;;;44.97;22.38;;;;;;;-0.34;92.46;103561.31;4993649;28;20467;-84
2023/01/25 03:41:01;;;;;;;47.08;23.25;;;;;;;-0.37;92.17;103550.00;4993518;28;20054;-85
2023/01/25 03:43:27;;;;;;;50.55;25.85;;;;;;;-0.37;92.37;103552.56;4992806;28;20042;-85
2023/01/25 03:45:55;;;;;;;47.00;23.63;;;;;;;-0.37;92.47;103557.66;4993352;28;20102;-85
2023/01/25 03:48:22;;;;;;;46.22;22.83;;;;;;;-0.37;92.67;103555.97;4993555;28;20538;-85
2023/01/25 03:50:52;;;;;;;49.58;24.80;;;;;;;-0.40;92.49;103557.44;4991532;28;20113;-85
2023/01/25 03:53:35;;;;;;;58.00;29.52;;;;;;;-0.47;91.58;103554.44;4993417;28;20037;-85
2023/01/25 03:56:07;;;;;;;63.25;32.83;;;;;;;-0.52;91.83;103554.88;4993053;28;20057;-85
2023/01/25 03:58:33;;;;;;;63.08;32.85;;;;;;;-0.59;91.45;103560.25;4992825;28;20038;-85
2023/01/25 04:00:59;;;;;;;59.70;30.35;;;;;;;-0.64;92.04;103565.94;4993146;28;20049;-85
2023/01/25 04:03:25;;;;;;;78.32;38.50;;;;;;;-0.69;91.63;103562.13;4993359;28;20023;-85
2023/01/25 04:05:52;;;;;;;63.78;33.08;;;;;;;-0.69;92.15;103558.72;4992488;28;20093;-85
2023/01/25 04:08:17;;;;;;;58.63;29.83;;;;;;;-0.69;92.42;103549.38;4993526;28;20033;-85
2023/01/25 04:10:42;;;;;;;54.72;27.90;;;;;;;-0.65;91.86;103556.50;4993065;28;20034;-85
2023/01/25 04:13:08;;;;;;;51.28;25.65;;;;;;;-0.65;92.42;103556.50;4992340;28;20022;-85
2023/01/25 04:15:34;;;;;;;44.88;21.92;;;;;;;-0.63;92.02;103554.97;4992983;28;20050;-85
2023/01/25 04:17:59;;;;;;;45.10;22.50;;;;;;;-0.58;92.67;103545.09;4992487;28;20077;-84
2023/01/25 04:20:24;;;;;;;40.40;19.27;;;;;;;-0.54;92.72;103543.66;4992765;28;20034;-85
2023/01/25 04:22:50;;;;;;;41.33;19.60;;;;;;;-0.50;93.06;103537.97;4992706;28;20041;-85
2023/01/25 04:25:15;;;;;;;41.00;19.30;;;;;;;-0.48;92.45;103536.44;4992438;28;20569;-85
2023/01/25 04:27:40;;;;;;;38.35;18.20;;;;;;;-0.49;92.12;103537.22;4993123;28;20054;-85
2023/01/25 04:30:06;;;;;;;39.20;18.58;;;;;;;-0.52;92.20;103534.47;4992536;28;20049;-85
2023/01/25 04:32:34;;;;;;;38.40;18.05;;;;;;;-0.55;92.20;103534.22;4992061;28;20121;-85
2023/01/25 04:34:59;;;;;;;44.72;21.15;;;;;;;-0.60;91.87;103533.88;4992959;28;20026;-85
2023/01/25 04:37:25;;;;;;;39.15;18.25;;;;;;;-0.59;92.26;103535.66;4992743;28;20145;-85
2023/01/25 04:39:50;;;;;;;37.47;17.45;;;;;;;-0.59;92.42;103534.75;4991941;28;20133;-85
2023/01/25 04:42:15;;;;;;;36.88;17.00;;;;;;;-0.57;92.57;103536.66;4993083;28;20027;-85
2023/01/25 04:45:01;;;;;;;37.58;17.33;;;;;;;-0.51;92.66;103537.09;4992965;28;20527;-85
2023/01/25 04:47:35;;;;;;;35.47;16.27;;;;;;;-0.48;92.86;103526.22;4991911;28;20031;-85
2023/01/25 04:50:00;;;;;;;34.60;15.57;;;;;;;-0.44;92.91;103532.44;4992489;28;20394;-85
2023/01/25 04:52:26;;;;;;;35.47;16.48;;;;;;;-0.44;93.00;103527.34;4985076;28;20117;-85
2023/01/25 04:54:57;;;;;;;38.13;18.17;;;;;;;-0.48;92.66;103519.47;4992335;28;20034;-85
2023/01/25 04:57:36;;;;;;;38.65;18.08;;;;;;;-0.47;92.88;103521.25;4992906;28;20069;-85
2023/01/25 05:00:02;;;;;;;39.50;18.67;;;;;;;-0.48;92.87;103523.69;4992644;28;20090;-85
2023/01/25 05:02:28;;;;;;;44.05;20.92;;;;;;;-0.51;92.63;103516.69;4993408;28;20026;-85
2023/01/25 05:04:53;;;;;;;43.20;20.77;;;;;;;-0.51;92.86;103514.16;4996838;28;20365;-85
2023/01/25 05:07:18;;;;;;;42.05;19.55;;;;;;;-0.47;92.62;103518.72;4995321;28;20121;-84
2023/01/25 05:09:43;;;;;;;40.58;19.10;;;;;;;-0.43;93.04;103512.16;4996212;28;20109;-85
2023/01/25 05:12:12;;;;;;;39.10;18.45;;;;;;;-0.42;92.88;103505.38;4995959;28;20146;-85
2023/01/25 05:14:38;;;;;;;40.05;18.63;;;;;;;-0.41;92.78;103507.16;4994927;28;20435;-85
2023/01/25 05:17:06;;;;;;;37.85;17.60;;;;;;;-0.42;92.76;103507.94;4995653;28;20105;-85
2023/01/25 05:19:32;;;;;;;41.40;19.83;;;;;;;-0.42;92.74;103507.94;4995883;28;20030;-85
2023/01/25 05:21:57;;;;;;;36.30;17.25;;;;;;;-0.44;92.93;103509.47;4995178;28;20441;-85
2023/01/25 05:24:31;;;;;;;38.40;18.45;;;;;;;-0.42;92.67;103510.47;4995988;28;20034;-85
2023/01/25 05:27:00;;;;;;;39.40;18.17;;;;;;;-0.42;93.00;103513.03;4995516;28;20022;-85
2023/01/25 05:29:36;;;;;;;38.25;17.55;;;;;;;-0.42;93.00;103498.63;4994933;28;20056;-85
2023/01/25 05:32:04;;;;;;;41.38;19.58;;;;;;;-0.40;93.02;103501.28;4995600;28;20487;-85
2023/01/25 05:34:30;;;;;;;40.17;19.30;;;;;;;-0.41;92.80;103499.50;4996036;28;20158;-85
2023/01/25 05:36:56;;;;;;;43.17;20.55;;;;;;;-0.42;92.88;103496.09;4995104;28;20097;-85
2023/01/25 05:39:21;;;;;;;41.97;20.20;;;;;;;-0.45;92.74;103498.41;4995976;28;20057;-85
2023/01/25 05:41:46;;;;;;;41.67;19.00;;;;;;;-0.45;92.58;103500.09;4995604;28;20015;-84
2023/01/25 05:44:12;;;;;;;41.10;19.08;;;;;;;-0.48;92.63;103496.53;4995395;28;20022;-85
2023/01/25 05:46:37;;;;;;;40.88;18.75;;;;;;;-0.50;92.77;103490.41;4995873;28;20378;-86
2023/01/25 05:49:08;;;;;;;41.25;19.00;;;;;;;-0.53;92.39;103499.50;4995370;28;20049;-85
2023/01/25 05:51:53;;;;;;;;;;;;;;;;;;;;;
2023/01/25 05:54:30;;;;;;;40.50;18.90;;;;;;;-0.59;92.68;103501.59;4996201;28;20030;-86
2023/01/25 05:56:55;;;;;;;39.75;17.83;;;;;;;-0.61;92.51;103498.94;4994109;28;20023;-85
2023/01/25 05:59:21;;;;;;;40.25;18.75;;;;;;;-0.63;92.71;103493.75;4995698;28;20530;-85
2023/01/25 06:01:52;;;;;;;36.92;16.73;;;;;;;-0.59;92.96;103493.94;4995339;28;20034;-85
2023/01/25 06:04:17;;;;;;;37.90;17.70;;;;;;;-0.57;92.44;103490.75;4994931;28;20018;-85
2023/01/25 06:06:43;;;;;;;43.75;20.63;;;;;;;-0.42;92.34;103492.63;4995613;28;20434;-85
2023/01/25 06:09:12;;;;;;;50.20;23.90;;;;;;;-0.58;92.25;103496.63;4996776;28;20030;-84
2023/01/25 06:11:50;;;;;;;46.65;22.98;;;;;;;-0.59;92.63;103493.94;4994624;28;20037;-85
2023/01/25 06:14:15;;;;;;;48.10;23.27;;;;;;;-0.58;92.61;103495.72;4994060;28;20031;-85
2023/01/25 06:16:40;;;;;;;47.63;23.00;;;;;;;-0.57;92.15;103502.59;4994346;28;20368;-85
2023/01/25 06:19:06;;;;;;;60.08;30.90;;;;;;;-0.68;90.44;103507.81;4994145;28;20022;-84
2023/01/25 06:21:35;;;;;;;59.88;30.10;;;;;;;-0.79;90.95;103499.34;4995262;28;20026;-84
2023/01/25 06:24:01;;;;;;;63.38;31.50;;;;;;;-0.85;91.44;103498.91;4994680;28;20529;-84
2023/01/25 06:26:26;;;;;;;54.88;27.48;;;;;;;-0.87;91.79;103497.88;4994007;28;20046;-85
2023/01/25 06:28:52;;;;;;;50.67;24.65;;;;;;;-0.87;92.43;103502.13;4994896;28;20031;-85
2023/01/25 06:31:17;;;;;;;52.88;25.55;;;;;;;-0.83;92.24;103499.91;4994644;28;20035;-85
2023/01/25 06:33:51;;;;;;;47.13;23.42;;;;;;;-0.83;92.54;103494.81;4994316;28;20117;-85
2023/01/25 06:36:18;;;;;;;46.58;22.98;;;;;;;-0.80;92.46;103494.13;4994614;28;20459;-85
2023/01/25 06:38:50;;;;;;;45.65;22.65;;;;;;;-0.80;92.19;103501.78;4994191;28;20110;-85
2023/01/25 06:41:16;;;;;;;42.67;20.63;;;;;;;-0.80;92.43;103489.03;4994671;28;20027;-85
2023/01/25 06:43:41;;;;;;;42.20;20.15;;;;;;;-0.79;92.43;103491.69;4994159;28;20032;-84
2023/01/25 06:46:10;;;;;;;45.38;22.20;;;;;;;-0.82;91.42;103493.13;4993593;28;20031;-85
2023/01/25 06:48:36;;;;;;;46.38;22.58;;;;;;;-0.88;91.53;103493.56;4994641;28;20081;-85
2023/01/25 06:51:05;;;;;;;41.10;20.15;;;;;;;-0.87;92.10;103494.47;4994027;28;20030;-85
2023/01/25 06:53:33;;;;;;;39.42;18.55;;;;;;;-0.85;91.90;103493.81;4993808;28;20034;-85
2023/01/25 06:56:04;;;;;;;40.03;19.17;;;;;;;-0.83;92.31;103486.25;4994048;28;20034;-84
2023/01/25 06:58:30;;;;;;;37.80;17.52;;;;;;;-0.83;92.34;103492.25;4994272;28;20030;-84
2023/01/25 07:01:09;;;;;;;37.00;17.57;;;;;;;-0.80;92.30;103482.28;4993516;28;20058;-84
2023/01/25 07:03:34;;;;;;;37.33;16.58;;;;;;;-0.79;92.57;103481.50;4994747;28;20037;-84
2023/01/25 07:06:01;;;;;;;36.33;16.88;;;;;;;-0.74;92.49;103480.97;4993483;28;20383;-85
2023/01/25 07:08:27;;;;;;;37.35;17.55;;;;;;;-0.71;92.69;103482.06;4993670;28;20022;-89
2023/01/25 07:10:57;;;;;;;35.17;15.88;;;;;;;-0.73;92.03;103486.16;4993599;28;20105;-84
2023/01/25 07:13:23;;;;;;;45.45;21.67;;;;;;;-0.81;91.87;103485.63;4993938;28;20476;-83
2023/01/25 07:15:59;;;;;;;57.65;28.02;;;;;;;-0.94;91.33;103482.91;5004853;28;20061;-84
2023/01/25 07:18:27;;;;;;;51.50;24.98;;;;;;;-0.98;92.15;103491.09;5013758;28;20033;-84
2023/01/25 07:20:52;;;;;;;54.78;26.25;;;;;;;-1.02;92.28;103502.72;5012757;28;20033;-83
2023/01/25 07:23:18;;;;;;;50.80;25.02;;;;;;;-1.03;92.53;103495.84;5013412;28;20072;-84
2023/01/25 07:25:45;;;;;;;47.85;22.73;;;;;;;-1.02;92.29;103489.13;5013674;28;20021;-85
2023/01/25 07:28:11;;;;;;;55.72;26.92;;;;;;;-1.07;92.14;103488.78;5013089;28;20034;-84
2023/01/25 07:30:36;;;;;;;49.13;24.33;;;;;;;-1.09;92.12;103488.63;5013292;28;20026;-84
2023/01/25 07:33:01;;;;;;;46.15;22.17;;;;;;;-1.06;92.68;103484.53;5013190;28;20087;-84
2023/01/25 07:35:27;;;;;;;43.47;20.75;;;;;;;-1.04;92.49;103476.22;5013081;28;20038;-84
2023/01/25 07:37:54;;;;;;;39.47;18.15;;;;;;;-1.00;92.83;103479.91;5012711;28;20022;-84
2023/01/25 07:40:19;;;;;;;;;;;;;;;-1.00;92.80;103480.81;5013781;28;20383;-85
2023/01/25 07:42:44;;;;;;;37.67;16.70;;;;;;;-1.01;92.33;103475.56;5012805;28;19914;-85
2023/01/25 07:45:09;;;;;;;50.45;23.95;;;;;;;-1.05;92.00;103476.13;5013474;28;20109;-85
2023/01/25 07:47:35;;;;;;;46.53;21.50;;;;;;;-1.07;92.42;103468.38;5012928;28;20120;-85
2023/01/25 07:50:00;;;;;;;49.10;23.65;;;;;;;-1.12;92.04;103465.47;5012264;28;20029;-85
2023/01/25 07:52:26;;;;;;;60.17;28.67;;;;;;;-1.16;92.07;103471.13;5012829;28;20026;-84
2023/01/25 07:54:51;;;;;;;52.38;25.80;;;;;;;-1.14;92.57;103471.22;5013056;28;20037;-85
2023/01/25 07:57:16;;;;;;;48.10;23.50;;;;;;;-1.11;92.71;103471.47;5012198;28;20028;-85
2023/01/25 07:59:42;;;;;;;44.83;21.35;;;;;;;-1.09;92.58;103473.34;5012467;28;20022;-84
2023/01/25 08:02:10;;;;;;;42.22;19.73;;;;;;;-1.06;92.77;103475.22;5012771;28;20104;-85
2023/01/25 08:04:35;;;;;;;39.40;18.35;;;;;;;-1.03;92.53;103472.91;5012375;28;20064;-85
2023/01/25 08:07:01;;;;;;;52.53;25.08;;;;;;;-1.09;91.92;103473.34;5012413;28;20057;-85
2023/01/25 08:09:27;;;;;;;56.53;26.90;;;;;;;-1.16;92.07;103473.66;5013034;28;20485;-85
2023/01/25 08:11:52;;;;;;;52.80;25.65;;;;;;;-1.15;92.68;103465.25;5009204;28;20060;-85
2023/01/25 08:14:18;;;;;;;46.92;21.70;;;;;;;-1.11;92.70;103468.91;5003149;28;20390;-85
2023/01/25 08:16:43;;;;;;;42.72;20.15;;;;;;;-1.08;92.61;103456.41;5012642;28;20042;-85
2023/01/25 08:19:10;;;;;;;40.47;18.30;;;;;;;-1.03;93.09;103462.72;5012364;28;20033;-85
2023/01/25 08:21:35;;;;;;;36.85;17.05;;;;;;;-1.00;92.70;103465.50;5012737;28;20061;-85
2023/01/25 08:24:04;;;;;;;36.80;16.80;;;;;;;-0.95;93.10;103461.63;5012919;28;20038;-85
2023/01/25 08:26:29;;;;;;;35.78;15.73;;;;;;;-0.91;93.03;103462.75;5012666;28;20018;-86
2023/01/25 08:28:55;;;;;;;32.10;14.07;;;;;;;-0.88;92.74;103457.88;5012857;28;20022;-86
2023/01/25 08:31:24;;;;;;;30.23;12.88;;;;;;;-0.85;92.59;103453.00;5015188;28;20052;-85
2023/01/25 08:33:52;;;;;;;30.38;13.35;;;;;;;-0.83;92.86;103461.66;5017579;28;20084;-86
2023/01/25 08:36:18;;;;;;;30.35;13.55;;;;;;;-0.82;93.09;103454.88;5012538;28;20030;-85
2023/01/25 08:38:47;;;;;;;29.05;11.90;;;;;;;-0.82;92.99;103452.34;5015637;28;20105;-85
2023/01/25 08:41:14;;;;;;;31.90;13.57;;;;;;;-0.84;92.44;103454.78;5012069;28;20034;-85
2023/01/25 08:43:40;;;;;;;42.15;19.05;;;;;;;-0.90;91.95;103455.97;5016445;28;20030;-85
2023/01/25 08:46:06;;;;;;;43.35;20.50;;;;;;;-0.95;92.23;103450.56;5015878;28;20049;-85
2023/01/25 08:48:31;;;;;;;39.90;17.63;;;;;;;-0.93;92.39;103452.44;5016335;28;20069;-86
2023/01/25 08:50:57;;;;;;;46.13;21.85;;;;;;;-0.95;92.18;103463.28;5016097;28;20041;-85
2023/01/25 08:53:22;;;;;;;59.55;28.38;;;;;;;-1.07;92.09;103460.72;5015854;28;20022;-85
2023/01/25 08:55:48;;;;;;;67.68;32.80;;;;;;;-1.16;91.68;103453.28;5016283;28;20029;-85
2023/01/25 08:58:15;;;;;;;63.90;31.10;;;;;;;-1.19;92.32;103458.13;5016123;28;20108;-85
2023/01/25 09:00:41;;;;;;;57.15;26.85;;;;;;;-1.15;92.66;103443.97;5015560;28;20030;-84
2023/01/25 09:03:07;;;;;;;49.03;23.30;;;;;;;-1.09;92.81;103444.44;5015627;28;20498;-85
2023/01/25 09:05:33;;;;;;;45.78;21.63;;;;;;;-1.03;92.95;103437.22;5016209;28;20665;-86
2023/01/25 09:07:59;;;;;;;44.72;20.63;;;;;;;-0.96;92.64;103433.47;5015723;28;20088;-86
2023/01/25 09:10:24;;;;;;;44.00;20.50;;;;;;;-0.93;92.82;103434.59;5011343;28;20112;-83
2023/01/25 09:12:50;;;;;;;41.47;18.80;;;;;;;-0.90;92.73;103435.59;5011903;28;20561;-83
2023/01/25 09:15:15;;;;;;;37.55;17.20;;;;;;;-0.86;92.86;103440.16;5014705;28;20527;-83
2023/01/25 09:17:40;;;;;;;38.88;17.67;;;;;;;-0.85;93.03;103434.28;5013881;28;20034;-83
2023/01/25 09:20:06;;;;;;;41.08;18.13;;;;;;;-0.83;92.75;103432.69;5015505;28;20356;-83
2023/01/25 09:22:32;;;;;;;36.35;15.50;;;;;;;-0.80;92.47;103428.75;5014910;28;20033;-83
2023/01/25 09:24:57;;;;;;;46.92;22.20;;;;;;;-0.81;92.37;103426.97;5015477;28;20398;-83
2023/01/25 09:27:22;;;;;;;42.25;19.90;;;;;;;-0.81;92.27;103423.50;5014212;28;20026;-83
2023/01/25 09:29:48;;;;;;;43.50;19.90;;;;;;;-0.83;92.75;103427.59;5013622;28;20026;-83
2023/01/25 09:32:13;;;;;;;40.17;18.50;;;;;;;-0.83;92.76;103428.50;5014032;28;20038;-82
2023/01/25 09:34:38;;;;;;;39.80;18.50;;;;;;;-0.85;92.33;103435.16;5012940;28;20053;-82
2023/01/25 09:37:04;;;;;;;45.95;21.80;;;;;;;-0.90;92.33;103425.38;5013361;28;20069;-82
2023/01/25 09:39:29;;;;;;;44.75;21.27;;;;;;;-0.91;92.24;103426.16;5013165;28;20075;-83
2023/01/25 09:42:19;;;;;;;43.63;20.10;;;;;;;-0.90;92.57;103425.38;5012275;28;20470;-83
2023/01/25 09:45:22;;;;;;;41.03;18.90;;;;;;;-0.89;92.83;103428.03;5014326;28;20030;-83
2023/01/25 09:47:58;;;;;;;36.30;16.08;;;;;;;-0.87;92.65;103423.06;5014892;28;20065;-82
2023/01/25 09:50:33;;;;;;;34.58;15.02;;;;;;;-0.83;92.69;103419.97;5014009;28;20030;-83
2023/01/25 09:53:15;;;;;;;30.90;13.55;;;;;;;-0.79;92.74;103425.38;5014638;28;20037;-83
2023/01/25 09:55:41;;;;;;;30.75;13.25;;;;;;;-0.74;92.55;103414.66;5014563;28;20041;-82
2023/01/25 09:58:13;;;;;;;31.70;13.70;;;;;;;-0.71;92.93;103414.88;5015122;28;20030;-82
2023/01/25 10:00:44;;;;;;;29.45;12.30;;;;;;;-0.67;92.66;103419.41;5015164;28;20113;-83
2023/01/25 10:03:18;;;;;;;28.27;12.27;;;;;;;-0.66;92.87;103422.09;5014315;28;20026;-83
2023/01/25 10:05:47;;;;;;;25.48;9.98;;;;;;;-0.65;93.01;103428.97;5014855;28;20070;-83
2023/01/25 10:08:31;;;;;;;25.48;10.45;;;;;;;-0.62;93.19;103423.19;5014763;28;20022;-83
2023/01/25 10:11:23;;;;;;;29.10;12.20;;;;;;;-0.60;92.90;103420.75;5013695;28;20069;-82
2023/01/25 10:13:49;;;;;;;29.08;12.00;;;;;;;-0.59;93.13;103413.22;5014674;28;20061;-82
2023/01/25 10:16:45;;;;;;;29.73;12.25;;;;;;;-0.57;92.68;103404.03;5014063;28;20128;-82
2023/01/25 10:19:23;;;;;;;33.47;13.75;;;;;;;-0.57;92.69;103405.66;5009229;28;20052;-82
2023/01/25 10:21:59;;;;;;;34.88;14.43;;;;;;;-0.59;92.62;103404.66;5013658;28;20037;-82
2023/01/25 10:24:45;;;;;;;39.88;18.08;;;;;;;-0.63;92.33;103406.13;5014001;28;20061;-82
2023/01/25 10:27:18;;;;;;;;;;;;;;;-0.82;91.20;103407.34;5014957;28;20438;-81
2023/01/25 10:29:45;;;;;;;69.07;31.42;;;;;;;-0.88;92.31;103400.91;5014238;28;19940;-82
2023/01/25 10:32:33;;;;;;;60.55;28.95;;;;;;;-0.91;91.92;103400.66;5013970;28;20041;-83
2023/01/25 10:35:14;;;;;;;56.63;26.27;;;;;;;-0.92;92.31;103392.16;5013994;28;20073;-81
2023/01/25 10:37:40;;;;;;;47.10;22.55;;;;;;;-0.91;92.42;103393.94;5014444;28;20033;-83
2023/01/25 10:40:21;;;;;;;46.00;22.15;;;;;;;-0.86;92.69;103386.59;5013122;28;20053;-84
2023/01/25 10:42:53;;;;;;;42.50;19.38;;;;;;;-0.82;92.92;103380.94;5014043;28;20029;-86
2023/01/25 10:45:19;;;;;;;38.33;18.17;;;;;;;-0.77;92.74;103374.50;5013657;28;20489;-87
2023/01/25 10:47:51;;;;;;;41.05;19.17;;;;;;;-0.73;92.58;103357.75;5013694;28;20026;-85
2023/01/25 10:50:53;;;;;;;41.22;19.25;;;;;;;-0.71;92.58;103346.88;5013906;28;20113;-85
2023/01/25 10:53:38;;;;;;;38.30;17.15;;;;;;;-0.69;92.77;103347.91;4914873;29;20481;-85
2023/01/25 10:56:10;;;;;;;39.78;18.52;;;;;;;-0.66;92.39;103344.66;5006760;28;20399;-84
2023/01/25 10:58:44;;;;;;;46.92;21.73;;;;;;;-0.72;91.94;103345.13;5014315;28;20091;-86
2023/01/25 11:01:22;;;;;;;44.53;20.50;;;;;;;-0.70;92.37;103337.59;5013201;28;20034;-87
2023/01/25 11:03:47;;;;;;;45.92;21.23;;;;;;;-0.68;92.23;103329.25;5013310;28;20041;-87
2023/01/25 11:06:13;;;;;;;42.10;19.10;;;;;;;-0.63;92.54;103321.94;5013144;28;20029;-84
2023/01/25 11:08:41;;;;;;;45.65;21.80;;;;;;;-0.56;92.39;103319.03;5013450;28;20080;-84
2023/01/25 11:11:29;;;;;;;43.35;20.27;;;;;;;-0.56;92.60;103308.81;5013763;28;20048;-86
2023/01/25 11:13:55;;;;;;;43.67;19.58;;;;;;;-0.54;92.03;103304.72;5012182;28;20036;-87
2023/01/25 11:16:36;;;;;;;41.10;19.35;;;;;;;-0.51;92.13;103297.28;5013630;28;20050;-86
2023/01/25 11:19:02;;;;;;;41.20;18.08;;;;;;;-0.49;92.37;103300.84;5013528;28;20038;-86
2023/01/25 11:21:33;;;;;;;36.58;16.67;;;;;;;-0.48;92.24;103288.97;5012941;28;20029;-87